createdAt,value
2022-10-22T00:01:26.435Z,90.57
2022-10-22T00:03:55.650Z,90.50
2022-10-22T00:06:25.871Z,90.48
2022-10-22T00:08:55.850Z,90.67
2022-10-22T00:11:25.800Z,90.63
2022-10-22T00:13:57.180Z,90.63
2022-10-22T00:16:25.662Z,90.85
2022-10-22T00:18:55.661Z,91.17
2022-10-22T00:21:29.576Z,91.42
2022-10-22T00:23:55.666Z,91.45
2022-10-22T00:28:55.806Z,91.52
2022-10-22T00:33:55.645Z,91.42
2022-10-22T00:36:25.753Z,91.33
2022-10-22T00:38:55.566Z,91.33
2022-10-22T00:41:25.591Z,91.27
2022-10-22T00:43:57.575Z,91.17
2022-10-22T00:46:25.875Z,91.11
2022-10-22T00:48:57.866Z,91.09
2022-10-22T00:51:29.688Z,91.04
2022-10-22T00:54:02.052Z,91.01
2022-10-22T00:56:26.039Z,90.93
2022-10-22T00:58:59.636Z,90.92
2022-10-22T01:01:27.758Z,90.98
2022-10-22T01:03:55.701Z,90.94
2022-10-22T01:06:27.926Z,90.91
2022-10-22T01:09:08.061Z,91.00
2022-10-22T01:11:34.806Z,90.98
2022-10-22T01:14:03.378Z,90.96
2022-10-22T01:16:34.363Z,90.95
2022-10-22T01:19:07.196Z,91.07
2022-10-22T01:24:15.626Z,91.39
2022-10-22T01:26:36.995Z,91.68
2022-10-22T01:29:01.426Z,92.20
2022-10-22T01:31:30.527Z,92.59
2022-10-22T01:33:58.310Z,92.61
2022-10-22T01:36:28.539Z,92.59
2022-10-22T01:38:58.015Z,92.80
2022-10-22T01:41:26.719Z,92.95
2022-10-22T01:43:56.234Z,92.85
2022-10-22T01:46:27.905Z,92.98
2022-10-22T01:49:11.638Z,92.85
2022-10-22T01:51:40.574Z,92.98
2022-10-22T01:54:01.846Z,93.00
2022-10-22T01:56:39.948Z,93.01
2022-10-22T01:59:06.455Z,93.08
2022-10-22T02:01:31.246Z,93.15
2022-10-22T02:04:03.418Z,92.99
2022-10-22T02:06:28.953Z,92.83
2022-10-22T02:08:57.477Z,92.93
2022-10-22T02:11:25.949Z,92.85
2022-10-22T02:16:29.757Z,93.05
2022-10-22T02:18:58.567Z,92.98
2022-10-22T02:21:26.451Z,93.09
2022-10-22T02:23:55.928Z,93.06
2022-10-22T02:26:32.806Z,93.30
2022-10-22T02:29:02.671Z,93.19
2022-10-22T02:31:29.651Z,93.45
2022-10-22T02:33:58.404Z,93.50
2022-10-22T02:36:26.384Z,93.75
2022-10-22T02:38:56.006Z,93.83
2022-10-22T02:41:26.585Z,94.08
2022-10-22T02:43:55.983Z,94.11
2022-10-22T02:46:25.769Z,94.28
2022-10-22T02:48:55.762Z,94.37
2022-10-22T02:51:25.755Z,94.46
2022-10-22T02:53:55.655Z,94.46
2022-10-22T02:56:26.526Z,94.55
2022-10-22T03:01:25.718Z,94.68
2022-10-22T03:03:55.629Z,94.68
2022-10-22T03:08:57.012Z,94.72
2022-10-22T03:11:25.807Z,94.73
2022-10-22T03:13:55.651Z,94.68
2022-10-22T03:16:25.749Z,94.66
2022-10-22T03:18:55.926Z,94.67
2022-10-22T03:21:31.120Z,94.69
2022-10-22T03:23:56.105Z,94.72
2022-10-22T03:26:25.660Z,94.83
2022-10-22T03:28:55.918Z,94.97
2022-10-22T03:31:25.928Z,95.05
2022-10-22T03:33:55.786Z,95.10
2022-10-22T03:36:26.085Z,95.26
2022-10-22T03:38:55.722Z,95.28
2022-10-22T03:41:25.871Z,95.31
2022-10-22T03:43:56.666Z,95.42
2022-10-22T03:46:25.725Z,95.46
2022-10-22T03:51:26.746Z,95.13
2022-10-22T03:53:55.689Z,95.22
2022-10-22T03:56:25.952Z,95.30
2022-10-22T03:58:56.835Z,95.54
2022-10-22T04:01:26.715Z,95.65
2022-10-22T04:06:25.888Z,95.64
2022-10-22T04:08:55.779Z,95.91
2022-10-22T04:11:25.677Z,95.75
2022-10-22T04:13:55.776Z,95.89
2022-10-22T04:16:30.645Z,95.91
2022-10-22T04:21:25.965Z,96.14
2022-10-22T04:23:56.651Z,96.28
2022-10-22T04:26:26.073Z,96.21
2022-10-22T04:28:55.664Z,96.15
2022-10-22T04:31:25.985Z,96.43
2022-10-22T04:33:57.545Z,96.31
2022-10-22T04:36:27.762Z,96.88
2022-10-22T04:38:58.380Z,96.82
2022-10-22T04:41:28.106Z,96.67
2022-10-22T04:43:56.532Z,96.62
2022-10-22T04:48:57.188Z,96.60
2022-10-22T04:51:26.261Z,96.60
2022-10-22T04:53:55.841Z,96.71
2022-10-22T04:56:27.687Z,96.68
2022-10-22T04:58:57.961Z,96.59
2022-10-22T05:01:27.726Z,96.84
2022-10-22T05:03:57.803Z,96.81
2022-10-22T05:06:27.929Z,96.72
2022-10-22T05:08:58.155Z,96.57
2022-10-22T05:11:28.499Z,96.53
2022-10-22T05:13:57.054Z,97.16
2022-10-22T05:23:58.881Z,96.76
2022-10-22T05:26:27.475Z,96.84
2022-10-22T05:28:55.948Z,96.72
2022-10-22T05:31:27.965Z,96.57
2022-10-22T05:33:55.927Z,96.50
2022-10-22T05:36:26.203Z,96.81
2022-10-22T05:38:56.374Z,96.63
2022-10-22T05:41:27.342Z,96.57
2022-10-22T05:43:57.862Z,96.56
2022-10-22T05:46:27.295Z,96.81
2022-10-22T05:48:58.313Z,96.62
2022-10-22T05:53:58.169Z,96.51
2022-10-22T05:56:28.529Z,96.47
2022-10-22T05:58:56.053Z,96.43
2022-10-22T06:01:27.928Z,96.56
2022-10-22T06:03:58.147Z,96.55
2022-10-22T06:06:29.530Z,96.39
2022-10-22T06:09:00.636Z,96.61
2022-10-22T06:11:25.704Z,96.64
2022-10-22T06:16:28.297Z,96.48
2022-10-22T06:18:58.615Z,96.68
2022-10-22T06:21:25.870Z,96.83
2022-10-22T06:23:56.177Z,96.64
2022-10-22T06:28:56.432Z,96.84
2022-10-22T06:31:26.670Z,96.57
2022-10-22T06:33:56.067Z,96.56
2022-10-22T06:36:25.895Z,96.59
2022-10-22T06:38:56.335Z,96.46
2022-10-22T06:43:56.987Z,96.38
2022-10-22T06:46:26.373Z,96.56
2022-10-22T06:48:59.617Z,97.02
2022-10-22T06:51:26.681Z,96.60
2022-10-22T06:53:57.421Z,96.83
2022-10-22T06:56:27.679Z,96.77
2022-10-22T06:58:57.439Z,96.84
2022-10-22T07:01:28.964Z,96.69
2022-10-22T07:03:56.477Z,96.87
2022-10-22T07:06:27.988Z,97.21
2022-10-22T07:08:57.898Z,97.03
2022-10-22T07:11:27.381Z,97.20
2022-10-22T07:13:58.106Z,97.70
2022-10-22T07:16:29.664Z,97.13
2022-10-22T07:18:56.026Z,97.37
2022-10-22T07:21:25.808Z,97.40
2022-10-22T07:23:55.891Z,97.40
2022-10-22T07:26:29.586Z,97.26
2022-10-22T07:28:56.564Z,97.46
2022-10-22T07:31:25.770Z,97.59
2022-10-22T07:33:56.851Z,97.52
2022-10-22T07:36:25.890Z,97.72
2022-10-22T07:38:57.490Z,98.20
2022-10-22T07:41:27.684Z,98.09
2022-10-22T07:43:56.750Z,98.48
2022-10-22T07:46:26.788Z,98.33
2022-10-22T07:48:55.880Z,98.21
2022-10-22T07:51:25.929Z,98.61
2022-10-22T07:53:56.053Z,98.66
2022-10-22T07:56:25.723Z,98.90
2022-10-22T07:58:55.893Z,99.16
2022-10-22T08:01:25.941Z,99.39
2022-10-22T08:03:55.924Z,99.32
2022-10-22T08:06:25.782Z,99.09
2022-10-22T08:08:56.796Z,99.05
2022-10-22T08:11:26.067Z,99.05
2022-10-22T08:13:55.750Z,99.78
2022-10-22T08:16:25.808Z,99.00
2022-10-22T08:18:55.877Z,98.60
2022-10-22T08:21:26.343Z,98.22
2022-10-22T08:23:55.812Z,98.17
2022-10-22T08:26:25.802Z,97.79
2022-10-22T08:28:55.815Z,97.86
2022-10-22T08:31:25.831Z,97.19
2022-10-22T08:33:56.312Z,95.78
2022-10-22T08:36:25.751Z,96.21
2022-10-22T08:38:56.035Z,96.46
2022-10-22T08:41:25.933Z,95.51
2022-10-22T08:44:14.734Z,95.64
2022-10-22T08:48:59.456Z,95.47
2022-10-22T08:51:29.994Z,95.72
2022-10-22T08:54:09.719Z,95.73
2022-10-22T08:56:26.022Z,95.73
2022-10-22T08:59:02.546Z,95.58
2022-10-22T09:01:32.799Z,95.40
2022-10-22T09:03:59.399Z,95.11
2022-10-22T09:06:28.410Z,95.04
2022-10-22T09:08:57.789Z,94.73
2022-10-22T09:11:30.965Z,94.39
2022-10-22T09:13:57.067Z,93.66
2022-10-22T09:16:36.209Z,93.67
2022-10-22T09:19:05.525Z,93.58
2022-10-22T09:21:37.885Z,93.13
2022-10-22T09:24:03.494Z,93.23
2022-10-22T09:26:26.160Z,93.02
2022-10-22T09:28:59.223Z,93.49
2022-10-22T09:31:27.141Z,93.74
2022-10-22T09:33:57.269Z,93.29
2022-10-22T09:36:28.218Z,94.16
2022-10-22T09:38:59.574Z,93.42
2022-10-22T09:41:29.022Z,93.51
2022-10-22T09:43:57.101Z,93.51
2022-10-22T09:46:28.358Z,92.83
2022-10-22T09:49:02.987Z,92.95
2022-10-22T09:51:45.298Z,92.36
2022-10-22T09:53:57.540Z,92.84
2022-10-22T09:56:28.034Z,92.70
2022-10-22T09:58:57.072Z,93.00
2022-10-22T10:01:29.346Z,93.13
2022-10-22T10:04:04.562Z,93.40
2022-10-22T10:06:30.337Z,93.61
2022-10-22T10:08:56.236Z,93.36
2022-10-22T10:14:07.410Z,92.56
2022-10-22T10:16:36.612Z,92.85
2022-10-22T10:19:08.286Z,92.74
2022-10-22T10:21:34.719Z,92.69
2022-10-22T10:24:07.941Z,92.17
2022-10-22T10:26:34.288Z,92.89
2022-10-22T10:29:09.578Z,92.82
2022-10-22T10:31:37.628Z,92.86
2022-10-22T10:34:07.939Z,92.74
2022-10-22T10:36:34.931Z,92.20
2022-10-22T10:39:01.974Z,91.88
2022-10-22T10:41:37.830Z,91.78
2022-10-22T10:44:12.604Z,91.61
2022-10-22T10:46:36.262Z,91.72
2022-10-22T10:48:59.561Z,91.66
2022-10-22T10:51:36.909Z,91.78
2022-10-22T10:54:12.670Z,92.16
2022-10-22T10:56:39.030Z,92.14
2022-10-22T10:59:04.337Z,92.03
2022-10-22T11:01:33.755Z,92.00
2022-10-22T11:04:15.679Z,92.36
2022-10-22T11:06:30.747Z,92.37
2022-10-22T11:09:01.337Z,92.55
2022-10-22T11:11:32.115Z,92.99
2022-10-22T11:14:02.009Z,93.58
2022-10-22T11:16:30.744Z,94.05
2022-10-22T11:19:03.467Z,93.62
2022-10-22T11:21:31.463Z,93.68
2022-10-22T11:24:03.174Z,93.62
2022-10-22T11:26:36.251Z,93.57
2022-10-22T11:28:59.269Z,93.84
2022-10-22T11:31:27.073Z,93.95
2022-10-22T11:34:09.806Z,94.03
2022-10-22T11:36:28.230Z,94.16
2022-10-22T11:38:56.032Z,94.06
2022-10-22T11:41:30.067Z,94.24
2022-10-22T11:44:00.195Z,94.19
2022-10-22T11:46:33.913Z,94.18
2022-10-22T11:53:57.377Z,95.35
2022-10-22T11:56:36.455Z,96.01
2022-10-22T11:58:55.952Z,95.93
2022-10-22T12:01:28.833Z,96.11
2022-10-22T12:04:15.671Z,95.94
2022-10-22T12:06:27.033Z,96.53
2022-10-22T12:09:00.770Z,96.47
2022-10-22T12:11:34.315Z,96.01
2022-10-22T12:14:01.763Z,96.32
2022-10-22T12:16:37.775Z,96.20
2022-10-22T12:19:02.222Z,95.83
2022-10-22T12:21:26.062Z,95.69
2022-10-22T12:23:56.067Z,95.65
2022-10-22T12:26:28.333Z,95.36
2022-10-22T12:28:57.646Z,94.77
2022-10-22T12:36:27.771Z,94.40
2022-10-22T12:43:58.528Z,94.31
2022-10-22T12:46:27.359Z,94.39
2022-10-22T12:48:59.551Z,94.48
2022-10-22T12:51:27.418Z,94.19
2022-10-22T12:54:01.029Z,94.26
2022-10-22T12:56:30.546Z,94.31
2022-10-22T12:58:59.318Z,94.18
2022-10-22T13:01:28.314Z,93.71
2022-10-22T13:04:14.450Z,92.87
2022-10-22T13:06:27.600Z,93.44
2022-10-22T13:09:02.498Z,93.88
2022-10-22T13:11:31.346Z,94.13
2022-10-22T13:14:18.646Z,95.70
2022-10-22T13:16:29.079Z,95.70
2022-10-22T13:18:56.015Z,93.12
2022-10-22T13:21:28.839Z,93.64
2022-10-22T13:23:58.186Z,94.13
2022-10-22T13:26:32.364Z,91.94
2022-10-22T13:28:57.312Z,91.46
2022-10-22T13:31:27.874Z,91.06
2022-10-22T13:33:58.421Z,89.31
2022-10-22T13:36:26.037Z,87.76
2022-10-22T13:38:56.540Z,86.99
2022-10-22T13:41:29.914Z,86.10
2022-10-22T13:43:56.280Z,85.60
2022-10-22T13:46:26.696Z,83.94
2022-10-22T13:48:57.946Z,84.10
2022-10-22T13:51:32.377Z,83.77
2022-10-22T13:53:56.648Z,83.15
2022-10-22T13:56:26.159Z,82.69
2022-10-22T13:58:56.084Z,82.59
2022-10-22T14:04:00.879Z,81.85
2022-10-22T14:06:28.852Z,81.56
2022-10-22T14:08:59.178Z,81.27
2022-10-22T14:13:55.965Z,80.53
2022-10-22T14:16:27.819Z,79.63
2022-10-22T14:18:56.793Z,80.13
2022-10-22T14:21:29.385Z,79.34
2022-10-22T14:23:56.000Z,77.18
2022-10-22T14:26:30.373Z,79.74
2022-10-22T14:29:09.146Z,78.86
2022-10-22T14:31:26.758Z,78.86
2022-10-22T14:33:56.069Z,78.94
2022-10-22T14:36:27.003Z,78.22
2022-10-22T14:38:55.946Z,78.61
2022-10-22T14:41:28.120Z,77.55
2022-10-22T14:43:56.187Z,78.44
2022-10-22T14:46:26.017Z,78.26
2022-10-22T14:48:56.820Z,78.03
2022-10-22T14:51:25.944Z,78.12
2022-10-22T14:53:56.119Z,77.81
2022-10-22T14:56:26.078Z,78.05
2022-10-22T14:58:55.920Z,78.00
2022-10-22T15:01:25.976Z,77.97
2022-10-22T15:03:56.017Z,77.88
2022-10-22T15:06:26.194Z,77.61
2022-10-22T15:08:56.284Z,78.07
2022-10-22T15:11:26.162Z,78.04
2022-10-22T15:13:55.984Z,78.13
2022-10-22T15:16:26.525Z,78.24
2022-10-22T15:18:56.373Z,78.27
2022-10-22T15:21:25.947Z,78.41
2022-10-22T15:23:56.346Z,78.41
2022-10-22T15:26:26.872Z,78.62
2022-10-22T15:28:57.001Z,78.77
2022-10-22T15:31:45.812Z,78.92
2022-10-22T15:34:01.540Z,78.81
2022-10-22T15:36:26.096Z,78.82
2022-10-22T15:38:55.920Z,78.96
2022-10-22T15:41:26.185Z,79.06
2022-10-22T15:43:55.895Z,79.14
2022-10-22T15:46:27.010Z,79.34
2022-10-22T15:48:55.988Z,79.26
2022-10-22T15:51:26.025Z,79.35
2022-10-22T15:53:58.245Z,79.49
2022-10-22T15:56:27.644Z,79.58
2022-10-22T15:58:57.451Z,79.69
2022-10-22T16:01:26.752Z,79.78
2022-10-22T16:03:59.217Z,79.98
2022-10-22T16:08:59.120Z,79.79
2022-10-22T16:11:27.388Z,79.82
2022-10-22T16:13:57.725Z,79.94
2022-10-22T16:16:27.811Z,80.14
2022-10-22T16:18:56.481Z,80.12
2022-10-22T16:21:27.303Z,80.17
2022-10-22T16:23:56.404Z,80.08
2022-10-22T16:26:26.200Z,80.23
2022-10-22T16:28:57.520Z,80.25
2022-10-22T16:31:26.586Z,80.31
2022-10-22T16:33:57.106Z,80.39
2022-10-22T16:36:26.368Z,80.53
2022-10-22T16:38:55.975Z,80.51
2022-10-22T16:41:34.050Z,80.73
2022-10-22T16:43:56.020Z,80.73
2022-10-22T16:46:26.126Z,80.88
2022-10-22T16:48:56.295Z,81.03
2022-10-22T16:51:27.521Z,81.04
2022-10-22T16:53:56.539Z,81.34
2022-10-22T16:56:26.541Z,81.48
2022-10-22T16:58:56.991Z,81.50
2022-10-22T17:01:28.178Z,81.66
2022-10-22T17:03:58.439Z,81.76
2022-10-22T17:06:26.314Z,81.64
2022-10-22T17:11:29.058Z,81.50
2022-10-22T17:13:55.991Z,81.63
2022-10-22T17:16:26.005Z,81.55
2022-10-22T17:18:57.271Z,81.59
2022-10-22T17:21:25.990Z,81.66
2022-10-22T17:23:57.298Z,81.84
2022-10-22T17:26:26.190Z,81.78
2022-10-22T17:28:56.226Z,81.98
2022-10-22T17:31:27.735Z,82.40
2022-10-22T17:33:56.259Z,82.71
2022-10-22T17:39:00.885Z,83.01
2022-10-22T17:41:28.130Z,83.10
2022-10-22T17:46:28.226Z,82.99
2022-10-22T17:48:58.240Z,83.06
2022-10-22T17:51:28.137Z,83.29
2022-10-22T17:53:56.859Z,83.16
2022-10-22T17:56:28.862Z,83.26
2022-10-22T17:58:56.380Z,83.61
2022-10-22T18:01:28.277Z,83.68
2022-10-22T18:04:00.028Z,83.72
2022-10-22T18:06:26.958Z,83.67
2022-10-22T18:08:56.408Z,83.82
2022-10-22T18:11:27.371Z,83.79
2022-10-22T18:13:56.873Z,83.91
2022-10-22T18:16:26.092Z,84.06
2022-10-22T18:18:57.379Z,84.11
2022-10-22T18:21:27.694Z,84.13
2022-10-22T18:23:58.066Z,84.11
2022-10-22T18:26:27.091Z,84.20
2022-10-22T18:28:56.585Z,84.32
2022-10-22T18:31:27.345Z,84.43
2022-10-22T18:33:57.179Z,84.58
2022-10-22T18:36:26.713Z,84.65
2022-10-22T18:38:58.434Z,84.85
2022-10-22T18:41:27.372Z,85.11
2022-10-22T18:43:58.317Z,85.19
2022-10-22T18:46:27.854Z,85.31
2022-10-22T18:48:57.513Z,85.41
2022-10-22T18:51:29.667Z,85.53
2022-10-22T18:56:26.493Z,85.84
2022-10-22T18:58:56.089Z,85.88
2022-10-22T19:08:56.297Z,85.81
2022-10-22T19:11:26.644Z,85.96
2022-10-22T19:16:26.332Z,86.32
2022-10-22T19:18:59.956Z,86.21
2022-10-22T19:21:26.961Z,86.47
2022-10-22T19:26:28.756Z,86.50
2022-10-22T19:28:58.199Z,86.55
2022-10-22T19:33:56.898Z,86.58
2022-10-22T19:36:26.932Z,86.63
2022-10-22T19:38:57.293Z,86.63
2022-10-22T19:41:28.694Z,86.78
2022-10-22T19:43:57.401Z,86.89
2022-10-22T19:46:28.365Z,86.79
2022-10-22T19:48:56.223Z,86.80
2022-10-22T19:51:28.938Z,86.79
2022-10-22T19:53:58.415Z,86.89
2022-10-22T19:56:27.000Z,86.88
2022-10-22T19:58:57.398Z,86.95
2022-10-22T20:01:26.296Z,86.79
2022-10-22T20:03:56.140Z,87.10
2022-10-22T20:06:26.987Z,87.17
2022-10-22T20:08:56.522Z,87.37
2022-10-22T20:18:59.742Z,87.51
2022-10-22T20:21:26.470Z,87.56
2022-10-22T20:26:27.251Z,87.57
2022-10-22T20:28:57.063Z,87.55
2022-10-22T20:31:28.607Z,87.65
2022-10-22T20:33:57.882Z,87.68
2022-10-22T20:36:28.531Z,87.67
2022-10-22T20:38:59.727Z,87.76
2022-10-22T20:43:56.686Z,87.75
2022-10-22T20:46:28.326Z,87.77
2022-10-22T20:51:26.160Z,87.80
2022-10-22T20:53:56.349Z,87.84
2022-10-22T20:56:27.316Z,87.93
2022-10-22T20:59:03.510Z,87.94
2022-10-22T21:01:27.600Z,88.11
2022-10-22T21:03:56.022Z,88.01
2022-10-22T21:11:26.206Z,88.08
2022-10-22T21:13:56.296Z,88.18
2022-10-22T21:16:26.373Z,88.10
2022-10-22T21:18:56.277Z,88.26
2022-10-22T21:21:26.744Z,88.48
2022-10-22T21:23:56.247Z,88.33
2022-10-22T21:26:26.385Z,88.32
2022-10-22T21:28:56.228Z,88.25
2022-10-22T21:31:26.883Z,88.23
2022-10-22T21:33:56.300Z,88.15
2022-10-22T21:36:26.340Z,88.06
2022-10-22T21:38:56.398Z,88.12
2022-10-22T21:41:26.111Z,88.12
2022-10-22T21:43:57.298Z,88.11
2022-10-22T21:46:27.248Z,88.13
2022-10-22T21:48:58.289Z,88.12
2022-10-22T21:51:26.801Z,88.04
2022-10-22T21:53:56.383Z,88.01
2022-10-22T21:56:28.630Z,88.08
2022-10-22T21:58:56.289Z,88.16
2022-10-22T22:01:26.947Z,88.12
2022-10-22T22:03:56.762Z,88.15
2022-10-22T22:06:29.529Z,88.18
2022-10-22T22:08:56.364Z,88.17
2022-10-22T22:11:27.770Z,88.36
2022-10-22T22:13:57.225Z,88.40
2022-10-22T22:18:58.174Z,88.63
2022-10-22T22:21:26.766Z,88.91
2022-10-22T22:23:57.111Z,88.83
2022-10-22T22:28:57.533Z,88.95
2022-10-22T22:31:28.482Z,88.82
2022-10-22T22:36:27.118Z,88.55
2022-10-22T22:38:56.156Z,88.38
2022-10-22T22:41:26.197Z,88.38
2022-10-22T22:43:56.321Z,88.27
2022-10-22T22:46:26.151Z,88.16
2022-10-22T22:48:56.392Z,88.04
2022-10-22T22:51:27.547Z,87.95
2022-10-22T22:53:56.755Z,87.88
2022-10-22T22:56:28.072Z,87.81
2022-10-22T22:58:57.396Z,87.85
2022-10-22T23:01:29.083Z,87.90
2022-10-22T23:03:58.868Z,87.87
2022-10-22T23:06:28.823Z,87.88
2022-10-22T23:08:57.963Z,87.97
2022-10-22T23:11:27.189Z,88.14
2022-10-22T23:13:58.903Z,88.27
2022-10-22T23:16:28.961Z,88.42
2022-10-22T23:21:27.934Z,88.33
2022-10-22T23:23:59.225Z,88.43
2022-10-22T23:26:29.091Z,88.59
2022-10-22T23:31:26.456Z,88.59
2022-10-22T23:33:56.543Z,88.48
2022-10-22T23:38:56.455Z,88.26
2022-10-22T23:41:26.158Z,88.22
2022-10-22T23:43:56.235Z,88.18
2022-10-22T23:46:26.189Z,88.24
2022-10-22T23:51:26.783Z,88.12
2022-10-22T23:53:58.696Z,88.03
2022-10-22T23:56:26.683Z,88.04
2022-10-22T23:58:57.062Z,87.94
